createdAt,value
2023-10-26T00:02:20.115Z,13.37
2023-10-26T00:04:47.192Z,13.36
2023-10-26T00:07:15.520Z,13.39
2023-10-26T00:09:42.471Z,13.38
2023-10-26T00:12:09.452Z,13.42
2023-10-26T00:14:36.442Z,13.40
2023-10-26T00:17:03.433Z,13.35
2023-10-26T00:19:30.353Z,13.36
2023-10-26T00:21:57.661Z,13.37
2023-10-26T00:24:24.714Z,13.39
2023-10-26T00:26:51.645Z,13.41
2023-10-26T00:29:18.586Z,13.41
2023-10-26T00:31:45.452Z,13.41
2023-10-26T00:34:12.352Z,13.43
2023-10-26T00:36:39.187Z,13.41
2023-10-26T00:39:06.324Z,13.39
2023-10-26T00:41:33.783Z,13.37
2023-10-26T00:44:01.323Z,13.37
2023-10-26T00:46:28.300Z,13.37
2023-10-26T00:48:55.327Z,13.41
2023-10-26T00:51:23.576Z,13.40
2023-10-26T00:53:51.238Z,13.39
2023-10-26T00:56:22.218Z,13.42
2023-10-26T00:58:49.562Z,13.44
2023-10-26T01:01:18.081Z,13.43
2023-10-26T01:03:47.622Z,13.42
2023-10-26T01:06:14.544Z,13.46
2023-10-26T01:08:41.832Z,13.48
2023-10-26T01:11:09.017Z,13.49
2023-10-26T01:13:36.065Z,13.46
2023-10-26T01:16:05.992Z,13.47
2023-10-26T01:18:33.177Z,13.45
2023-10-26T01:21:00.298Z,13.46
2023-10-26T01:23:27.299Z,13.47
2023-10-26T01:25:56.684Z,13.47
2023-10-26T01:28:24.933Z,13.45
2023-10-26T01:30:52.934Z,13.48
2023-10-26T01:33:21.051Z,13.47
2023-10-26T01:35:48.682Z,13.49
2023-10-26T01:38:15.789Z,13.48
2023-10-26T01:40:42.977Z,13.45
2023-10-26T01:43:10.089Z,13.42
2023-10-26T01:45:36.988Z,13.41
2023-10-26T01:48:04.724Z,13.42
2023-10-26T01:50:32.530Z,13.40
2023-10-26T01:52:59.628Z,13.42
2023-10-26T01:55:26.695Z,13.41
2023-10-26T01:57:54.202Z,13.42
2023-10-26T02:00:21.197Z,13.44
2023-10-26T02:02:50.640Z,13.44
2023-10-26T02:05:20.741Z,13.44
2023-10-26T02:07:47.727Z,13.49
2023-10-26T02:10:16.081Z,13.50
2023-10-26T02:12:43.052Z,13.50
2023-10-26T02:15:11.068Z,13.48
2023-10-26T02:17:38.110Z,13.49
2023-10-26T02:20:05.570Z,13.49
2023-10-26T02:22:32.543Z,13.46
2023-10-26T02:24:59.454Z,13.45
2023-10-26T02:27:26.466Z,13.44
2023-10-26T02:29:53.374Z,13.45
2023-10-26T02:32:20.389Z,13.44
2023-10-26T02:34:47.612Z,13.42
2023-10-26T02:37:14.835Z,13.43
2023-10-26T02:39:41.863Z,13.44
2023-10-26T02:42:10.529Z,13.40
2023-10-26T02:44:37.854Z,13.38
2023-10-26T02:47:05.054Z,13.38
2023-10-26T02:49:35.286Z,13.37
2023-10-26T02:52:02.168Z,13.34
2023-10-26T02:54:29.625Z,13.31
2023-10-26T02:56:56.770Z,13.33
2023-10-26T02:59:23.770Z,13.32
2023-10-26T03:01:50.692Z,13.28
2023-10-26T03:04:17.817Z,13.26
2023-10-26T03:06:44.836Z,13.21
2023-10-26T03:09:11.915Z,13.24
2023-10-26T03:11:38.878Z,13.25
2023-10-26T03:14:05.821Z,13.23
2023-10-26T03:16:36.705Z,13.22
2023-10-26T03:19:05.082Z,13.24
2023-10-26T03:21:32.558Z,13.25
2023-10-26T03:23:59.606Z,13.28
2023-10-26T03:26:26.569Z,13.31
2023-10-26T03:28:53.824Z,13.32
2023-10-26T03:31:21.235Z,13.31
2023-10-26T03:33:48.271Z,13.33
2023-10-26T03:36:18.891Z,13.34
2023-10-26T03:38:46.436Z,13.32
2023-10-26T03:41:14.283Z,13.31
2023-10-26T03:43:41.310Z,13.31
2023-10-26T03:46:08.196Z,13.28
2023-10-26T03:48:37.009Z,13.25
2023-10-26T03:51:04.655Z,13.26
2023-10-26T03:53:32.024Z,13.24
2023-10-26T03:55:59.628Z,13.25
2023-10-26T03:58:27.065Z,13.27
2023-10-26T04:00:54.072Z,13.29
2023-10-26T04:03:21.094Z,13.30
2023-10-26T04:05:48.188Z,13.33
2023-10-26T04:08:15.468Z,13.33
2023-10-26T04:10:45.455Z,13.33
2023-10-26T04:13:12.402Z,13.30
2023-10-26T04:15:39.407Z,13.30
2023-10-26T04:18:09.731Z,13.28
2023-10-26T04:20:36.683Z,13.26
2023-10-26T04:23:05.259Z,13.24
2023-10-26T04:25:50.704Z,13.20
2023-10-26T04:28:19.733Z,13.20
2023-10-26T04:30:49.775Z,13.21
2023-10-26T04:33:17.553Z,13.20
2023-10-26T04:35:45.958Z,13.18
2023-10-26T04:38:12.807Z,13.22
2023-10-26T04:40:41.578Z,13.23
2023-10-26T04:43:10.396Z,13.23
2023-10-26T04:45:37.857Z,13.23
2023-10-26T04:48:05.130Z,13.23
2023-10-26T04:50:32.633Z,13.23
2023-10-26T04:53:03.912Z,13.23
2023-10-26T04:55:36.688Z,13.24
2023-10-26T04:58:04.731Z,13.24
2023-10-26T05:00:32.154Z,13.21
2023-10-26T05:03:07.015Z,13.22
2023-10-26T05:05:33.970Z,13.26
2023-10-26T05:08:01.057Z,13.27
2023-10-26T05:10:29.067Z,13.26
2023-10-26T05:12:56.014Z,13.27
2023-10-26T05:15:23.111Z,13.27
2023-10-26T05:17:50.198Z,13.28
2023-10-26T05:20:18.806Z,13.27
2023-10-26T05:22:45.827Z,13.28
2023-10-26T05:25:15.044Z,13.30
2023-10-26T05:27:42.056Z,13.33
2023-10-26T05:30:09.490Z,13.36
2023-10-26T05:32:36.540Z,13.35
2023-10-26T05:35:03.679Z,13.34
2023-10-26T05:37:30.679Z,13.36
2023-10-26T05:39:57.558Z,13.38
2023-10-26T05:42:24.498Z,13.40
2023-10-26T05:44:51.413Z,13.41
2023-10-26T05:47:21.623Z,13.41
2023-10-26T05:49:49.307Z,13.42
2023-10-26T05:52:17.010Z,13.43
2023-10-26T05:54:44.232Z,13.43
2023-10-26T05:57:11.311Z,13.43
2023-10-26T05:59:38.265Z,13.42
2023-10-26T06:02:05.470Z,13.42
2023-10-26T06:04:33.102Z,13.39
2023-10-26T06:07:00.925Z,13.40
2023-10-26T06:09:27.915Z,13.39
2023-10-26T06:11:54.875Z,13.39
2023-10-26T06:14:21.857Z,13.37
2023-10-26T06:16:48.920Z,13.39
2023-10-26T06:19:15.895Z,13.39
2023-10-26T06:21:42.944Z,13.36
2023-10-26T06:24:10.178Z,13.36
2023-10-26T06:26:37.191Z,13.38
2023-10-26T06:29:04.750Z,13.42
2023-10-26T06:31:31.747Z,13.45
2023-10-26T06:34:01.416Z,13.45
2023-10-26T06:36:28.489Z,13.43
2023-10-26T06:38:57.973Z,13.44
2023-10-26T06:41:25.102Z,13.43
2023-10-26T06:43:53.105Z,13.45
2023-10-26T06:46:20.874Z,13.48
2023-10-26T06:48:47.789Z,13.46
2023-10-26T06:51:14.938Z,13.46
2023-10-26T06:53:42.142Z,13.48
2023-10-26T06:56:14.977Z,13.47
2023-10-26T06:58:43.821Z,13.50
2023-10-26T07:01:19.501Z,13.51
2023-10-26T07:03:48.299Z,13.52
2023-10-26T07:06:15.514Z,13.50
2023-10-26T07:08:42.385Z,13.51
2023-10-26T07:11:09.393Z,13.51
2023-10-26T07:13:36.376Z,13.51
2023-10-26T07:16:04.938Z,13.52
2023-10-26T07:18:32.973Z,13.53
2023-10-26T07:20:59.999Z,13.51
2023-10-26T07:23:27.411Z,13.51
2023-10-26T07:25:54.386Z,13.54
2023-10-26T07:28:21.449Z,13.52
2023-10-26T07:30:52.611Z,13.54
2023-10-26T07:33:20.780Z,13.55
2023-10-26T07:36:00.304Z,13.57
2023-10-26T07:38:36.838Z,13.58
2023-10-26T07:43:53.351Z,13.58
2023-10-26T07:46:21.590Z,13.60
2023-10-26T07:48:49.038Z,13.61
2023-10-26T07:51:16.201Z,13.61
2023-10-26T07:53:43.162Z,13.62
2023-10-26T07:56:10.137Z,13.69
2023-10-26T07:58:37.324Z,13.75
2023-10-26T08:01:10.920Z,13.77
2023-10-26T08:03:38.036Z,13.79
2023-10-26T08:06:06.615Z,13.82
2023-10-26T08:08:33.833Z,13.86
2023-10-26T08:11:11.977Z,13.88
2023-10-26T08:13:39.093Z,13.87
2023-10-26T08:16:40.526Z,13.85
2023-10-26T08:18:54.004Z,13.84
2023-10-26T08:21:21.578Z,13.84
2023-10-26T08:23:48.573Z,13.85
2023-10-26T08:26:16.497Z,13.81
2023-10-26T08:28:43.521Z,13.83
2023-10-26T08:31:10.523Z,13.82
2023-10-26T08:33:38.352Z,13.80
2023-10-26T08:36:05.921Z,13.82
2023-10-26T08:38:34.252Z,13.85
2023-10-26T08:41:01.463Z,13.87
2023-10-26T08:43:30.115Z,13.91
2023-10-26T08:45:59.964Z,13.91
2023-10-26T08:48:29.748Z,13.95
2023-10-26T08:50:57.047Z,13.95
2023-10-26T08:53:24.148Z,13.92
2023-10-26T08:55:55.690Z,13.92
2023-10-26T08:58:23.093Z,13.91
2023-10-26T09:00:52.873Z,13.95
2023-10-26T09:03:20.649Z,14.01
2023-10-26T09:05:55.491Z,14.01
2023-10-26T09:08:28.917Z,14.06
2023-10-26T09:10:56.330Z,14.04
2023-10-26T09:13:29.391Z,14.04
2023-10-26T09:15:59.795Z,14.09
2023-10-26T09:18:30.331Z,14.09
2023-10-26T09:21:10.307Z,14.09
2023-10-26T09:23:41.689Z,14.09
2023-10-26T09:26:10.201Z,14.12
2023-10-26T09:28:57.399Z,14.13
2023-10-26T09:31:25.322Z,14.17
2023-10-26T09:33:52.930Z,14.21
2023-10-26T09:36:22.010Z,14.25
2023-10-26T09:38:49.398Z,14.28
2023-10-26T09:41:18.042Z,14.34
2023-10-26T09:43:45.131Z,14.37
2023-10-26T09:46:13.021Z,14.34
2023-10-26T09:48:42.478Z,14.31
2023-10-26T09:51:12.049Z,14.37
2023-10-26T09:53:42.487Z,14.33
2023-10-26T09:56:18.478Z,14.30
2023-10-26T09:58:46.178Z,14.30
2023-10-26T10:01:35.848Z,14.27
2023-10-26T10:04:03.900Z,14.27
2023-10-26T10:06:52.749Z,14.34
2023-10-26T10:09:24.696Z,14.39
2023-10-26T10:12:10.308Z,14.46
2023-10-26T10:14:49.682Z,14.52
2023-10-26T10:17:17.763Z,14.53
2023-10-26T10:19:47.729Z,14.62
2023-10-26T10:22:40.645Z,14.68
2023-10-26T10:25:12.036Z,14.71
2023-10-26T10:27:40.124Z,14.74
2023-10-26T10:30:11.839Z,14.75
2023-10-26T10:32:48.772Z,14.79
2023-10-26T10:35:35.951Z,14.80
2023-10-26T10:38:15.277Z,14.81
2023-10-26T10:41:02.958Z,14.79
2023-10-26T10:43:34.424Z,14.78
2023-10-26T10:46:16.861Z,14.78
2023-10-26T10:49:08.928Z,14.76
2023-10-26T10:51:43.629Z,14.82
2023-10-26T10:54:24.207Z,14.91
2023-10-26T10:56:57.606Z,15.02
2023-10-26T10:59:27.360Z,15.11
2023-10-26T11:02:10.310Z,15.18
2023-10-26T11:04:59.614Z,15.21
2023-10-26T11:07:32.886Z,15.22
2023-10-26T11:10:01.867Z,15.24
2023-10-26T11:12:29.021Z,15.28
2023-10-26T11:14:57.766Z,15.33
2023-10-26T11:17:26.108Z,15.38
2023-10-26T11:19:54.783Z,15.48
2023-10-26T11:22:23.668Z,15.54
2023-10-26T11:24:50.986Z,15.56
2023-10-26T11:27:25.375Z,15.66
2023-10-26T11:30:05.441Z,15.70
2023-10-26T11:32:32.460Z,15.74
2023-10-26T11:35:10.693Z,15.74
2023-10-26T11:37:42.274Z,15.74
2023-10-26T11:40:11.292Z,15.70
2023-10-26T11:42:52.926Z,15.75
2023-10-26T11:45:22.509Z,15.75
2023-10-26T11:48:00.327Z,15.85
2023-10-26T11:50:32.475Z,15.89
2023-10-26T11:53:09.297Z,15.91
2023-10-26T11:55:36.306Z,15.89
2023-10-26T11:58:04.391Z,15.87
2023-10-26T12:00:32.223Z,15.83
2023-10-26T12:03:04.512Z,15.84
2023-10-26T12:05:31.574Z,15.84
2023-10-26T12:07:58.451Z,15.89
2023-10-26T12:10:25.806Z,15.92
2023-10-26T12:12:54.949Z,15.97
2023-10-26T12:15:22.664Z,16.03
2023-10-26T12:17:50.271Z,16.06
2023-10-26T12:20:17.949Z,16.11
2023-10-26T12:22:45.361Z,16.16
2023-10-26T12:25:12.427Z,16.23
2023-10-26T12:28:25.543Z,16.22
2023-10-26T12:30:27.406Z,16.22
2023-10-26T12:33:08.993Z,16.22
2023-10-26T12:35:35.889Z,16.22
2023-10-26T12:38:02.799Z,16.21
2023-10-26T12:40:29.774Z,16.24
2023-10-26T12:43:07.126Z,16.19
2023-10-26T12:45:34.016Z,16.12
2023-10-26T12:48:01.244Z,16.13
2023-10-26T12:50:28.462Z,16.10
2023-10-26T12:52:56.309Z,16.11
2023-10-26T12:55:25.255Z,16.09
2023-10-26T12:57:53.268Z,16.11
2023-10-26T13:00:21.018Z,16.11
2023-10-26T13:02:48.144Z,16.15
2023-10-26T13:05:15.108Z,16.16
2023-10-26T13:07:42.015Z,16.16
2023-10-26T13:10:09.404Z,16.19
2023-10-26T13:12:36.542Z,16.22
2023-10-26T13:15:06.230Z,16.24
2023-10-26T13:17:34.590Z,16.25
2023-10-26T13:20:01.887Z,16.29
2023-10-26T13:22:28.837Z,16.37
2023-10-26T13:24:55.789Z,16.41
2023-10-26T13:27:22.880Z,16.46
2023-10-26T13:29:50.577Z,16.50
2023-10-26T13:32:17.678Z,16.51
2023-10-26T13:34:44.979Z,16.47
2023-10-26T13:37:12.018Z,16.48
2023-10-26T13:39:38.942Z,16.48
2023-10-26T13:42:05.943Z,16.47
2023-10-26T13:44:32.941Z,16.43
2023-10-26T13:46:59.900Z,16.43
2023-10-26T13:49:27.792Z,16.41
2023-10-26T13:51:54.806Z,16.41
2023-10-26T13:54:22.694Z,16.44
2023-10-26T13:56:49.668Z,16.43
2023-10-26T13:59:16.656Z,16.44
2023-10-26T14:01:43.662Z,16.43
2023-10-26T14:04:10.856Z,16.44
2023-10-26T14:06:37.989Z,16.44
2023-10-26T14:09:05.180Z,16.45
2023-10-26T14:11:32.969Z,16.47
2023-10-26T14:14:00.169Z,16.49
2023-10-26T14:16:29.684Z,16.54
2023-10-26T14:18:58.306Z,16.59
2023-10-26T14:21:25.388Z,16.66
2023-10-26T14:23:52.344Z,16.70
2023-10-26T14:26:19.506Z,16.72
2023-10-26T14:28:48.955Z,16.74
2023-10-26T14:31:18.705Z,16.72
2023-10-26T14:33:45.789Z,16.75
2023-10-26T14:36:12.659Z,16.74
2023-10-26T14:38:39.511Z,16.75
2023-10-26T14:41:06.388Z,16.78
2023-10-26T14:43:33.471Z,16.77
2023-10-26T14:46:00.393Z,16.74
2023-10-26T14:48:27.480Z,16.73
2023-10-26T14:51:00.753Z,16.72
2023-10-26T14:53:27.912Z,16.67
2023-10-26T14:55:54.934Z,16.66
2023-10-26T14:58:23.155Z,16.64
2023-10-26T15:00:51.663Z,16.62
2023-10-26T15:03:18.655Z,16.62
2023-10-26T15:05:46.226Z,16.60
2023-10-26T15:08:13.367Z,16.57
2023-10-26T15:10:46.576Z,16.58
2023-10-26T15:13:13.643Z,16.56
2023-10-26T15:15:40.818Z,16.54
2023-10-26T15:18:07.767Z,16.54
2023-10-26T15:20:38.239Z,16.52
2023-10-26T15:23:05.468Z,16.49
2023-10-26T15:25:35.958Z,16.46
2023-10-26T15:28:02.960Z,16.45
2023-10-26T15:30:29.991Z,16.41
2023-10-26T15:32:58.891Z,16.35
2023-10-26T15:35:25.819Z,16.31
2023-10-26T15:37:52.729Z,16.30
2023-10-26T15:40:20.343Z,16.30
2023-10-26T15:42:47.517Z,16.29
2023-10-26T15:45:14.708Z,16.32
2023-10-26T15:47:41.695Z,16.31
2023-10-26T15:50:09.966Z,16.31
2023-10-26T15:52:36.991Z,16.31
2023-10-26T15:55:04.393Z,16.26
2023-10-26T15:57:34.232Z,16.23
2023-10-26T16:00:01.309Z,16.21
2023-10-26T16:02:28.704Z,16.21
2023-10-26T16:04:55.713Z,16.24
2023-10-26T16:07:22.664Z,16.25
2023-10-26T16:09:49.532Z,16.20
2023-10-26T16:12:17.240Z,16.18
2023-10-26T16:14:44.677Z,16.14
2023-10-26T16:17:11.803Z,16.12
2023-10-26T16:19:38.684Z,16.12
2023-10-26T16:22:05.680Z,16.12
2023-10-26T16:24:32.649Z,16.10
2023-10-26T16:26:59.725Z,16.07
2023-10-26T16:29:26.576Z,16.05
2023-10-26T16:31:53.741Z,16.02
2023-10-26T16:34:20.691Z,15.97
2023-10-26T16:36:47.828Z,15.93
2023-10-26T16:39:14.716Z,15.90
2023-10-26T16:41:41.604Z,15.87
2023-10-26T16:44:08.650Z,15.86
2023-10-26T16:46:35.590Z,15.82
2023-10-26T16:49:02.584Z,15.77
2023-10-26T16:51:29.525Z,15.72
2023-10-26T16:53:56.411Z,15.70
2023-10-26T16:56:25.342Z,15.68
2023-10-26T16:58:52.287Z,15.67
2023-10-26T17:01:19.357Z,15.64
2023-10-26T17:03:46.972Z,15.60
2023-10-26T17:06:13.939Z,15.57
2023-10-26T17:08:40.937Z,15.53
2023-10-26T17:11:11.381Z,15.50
2023-10-26T17:13:38.241Z,15.50
2023-10-26T17:16:05.454Z,15.47
2023-10-26T17:18:32.392Z,15.45
2023-10-26T17:20:59.300Z,15.43
2023-10-26T17:23:26.370Z,15.38
2023-10-26T17:25:53.308Z,15.35
2023-10-26T17:28:20.225Z,15.33
2023-10-26T17:30:47.318Z,15.28
2023-10-26T17:33:17.039Z,15.26
2023-10-26T17:35:49.288Z,15.24
2023-10-26T17:38:16.504Z,15.20
2023-10-26T17:40:46.007Z,15.18
2023-10-26T17:43:14.022Z,15.16
2023-10-26T17:45:41.198Z,15.16
2023-10-26T17:48:08.272Z,15.12
2023-10-26T17:50:43.461Z,15.12
2023-10-26T17:53:10.417Z,15.12
2023-10-26T17:55:37.735Z,15.10
2023-10-26T17:58:04.792Z,15.09
2023-10-26T18:00:31.823Z,15.06
2023-10-26T18:02:58.850Z,15.05
2023-10-26T18:05:25.854Z,15.04
2023-10-26T18:07:54.192Z,15.04
2023-10-26T18:10:21.682Z,15.01
2023-10-26T18:12:49.689Z,14.99
2023-10-26T18:15:16.852Z,14.99
2023-10-26T18:17:43.997Z,14.98
2023-10-26T18:20:11.461Z,14.96
2023-10-26T18:22:38.460Z,14.91
2023-10-26T18:25:05.967Z,14.89
2023-10-26T18:27:32.944Z,14.86
2023-10-26T18:30:00.142Z,14.85
2023-10-26T18:32:27.381Z,14.84
2023-10-26T18:34:54.400Z,14.84
2023-10-26T18:37:22.410Z,14.83
2023-10-26T18:39:50.029Z,14.82
2023-10-26T18:42:17.012Z,14.79
2023-10-26T18:44:44.082Z,14.75
2023-10-26T18:47:11.894Z,14.73
2023-10-26T18:49:39.253Z,14.73
2023-10-26T18:52:06.442Z,14.73
2023-10-26T18:54:33.357Z,14.71
2023-10-26T18:57:00.689Z,14.68
2023-10-26T18:59:27.584Z,14.68
2023-10-26T19:01:54.515Z,14.65
2023-10-26T19:04:21.582Z,14.64
2023-10-26T19:06:48.580Z,14.64
2023-10-26T19:09:15.541Z,14.63
2023-10-26T19:11:43.616Z,14.59
2023-10-26T19:14:10.507Z,14.59
2023-10-26T19:16:37.693Z,14.58
2023-10-26T19:19:04.833Z,14.55
2023-10-26T19:21:31.898Z,14.58
2023-10-26T19:23:58.736Z,14.54
2023-10-26T19:26:25.594Z,14.53
2023-10-26T19:28:52.511Z,14.48
2023-10-26T19:31:19.805Z,14.48
2023-10-26T19:33:48.299Z,14.48
2023-10-26T19:36:15.393Z,14.48
2023-10-26T19:38:42.377Z,14.44
2023-10-26T19:41:13.228Z,14.39
2023-10-26T19:43:40.141Z,14.39
2023-10-26T19:46:07.093Z,14.40
2023-10-26T19:48:34.043Z,14.39
2023-10-26T19:51:00.990Z,14.34
2023-10-26T19:53:34.605Z,14.33
2023-10-26T19:56:01.776Z,14.32
2023-10-26T19:58:29.062Z,14.31
2023-10-26T20:00:56.079Z,14.34
2023-10-26T20:03:23.244Z,14.34
2023-10-26T20:05:50.287Z,14.31
2023-10-26T20:08:17.278Z,14.31
2023-10-26T20:10:45.292Z,14.32
2023-10-26T20:13:15.608Z,14.30
2023-10-26T20:15:42.540Z,14.27
2023-10-26T20:18:12.067Z,14.26
2023-10-26T20:23:14.439Z,14.25
2023-10-26T20:25:42.399Z,14.24
2023-10-26T20:28:11.252Z,14.24
2023-10-26T20:30:38.875Z,14.22
2023-10-26T20:33:09.932Z,14.19
2023-10-26T20:35:36.814Z,14.16
2023-10-26T20:38:04.612Z,14.14
2023-10-26T20:40:31.531Z,14.09
2023-10-26T20:43:06.251Z,14.08
2023-10-26T20:45:33.272Z,14.06
2023-10-26T20:48:00.664Z,14.03
2023-10-26T20:50:32.125Z,14.01
2023-10-26T20:53:08.575Z,13.99
2023-10-26T20:55:35.473Z,14.01
2023-10-26T20:58:02.391Z,13.99
2023-10-26T21:00:29.385Z,13.97
2023-10-26T21:02:56.381Z,13.96
2023-10-26T21:05:23.429Z,13.92
2023-10-26T21:07:50.363Z,13.90
2023-10-26T21:10:17.522Z,13.93
2023-10-26T21:12:44.680Z,13.90
2023-10-26T21:15:12.041Z,13.92
2023-10-26T21:17:39.018Z,13.91
2023-10-26T21:20:09.268Z,13.90
2023-10-26T21:22:36.922Z,13.87
2023-10-26T21:25:07.627Z,13.83
2023-10-26T21:27:36.302Z,13.80
2023-10-26T21:30:04.420Z,13.79
2023-10-26T21:32:32.052Z,13.78
2023-10-26T21:34:59.571Z,13.77
2023-10-26T21:37:26.610Z,13.73
2023-10-26T21:39:53.585Z,13.69
2023-10-26T21:42:21.363Z,13.67
2023-10-26T21:44:49.028Z,13.67
2023-10-26T21:47:15.955Z,13.64
2023-10-26T21:49:43.024Z,13.66
2023-10-26T21:52:10.195Z,13.69
2023-10-26T21:54:37.068Z,13.71
2023-10-26T21:57:04.209Z,13.74
2023-10-26T21:59:31.158Z,13.69
2023-10-26T22:01:58.704Z,13.65
2023-10-26T22:04:25.742Z,13.59
2023-10-26T22:06:52.857Z,13.55
2023-10-26T22:09:22.353Z,13.55
2023-10-26T22:11:49.228Z,13.51
2023-10-26T22:14:16.318Z,13.47
2023-10-26T22:16:44.406Z,13.45
2023-10-26T22:19:11.593Z,13.44
2023-10-26T22:21:38.658Z,13.44
2023-10-26T22:24:06.266Z,13.43
2023-10-26T22:26:33.205Z,13.43
2023-10-26T22:29:00.351Z,13.42
2023-10-26T22:31:27.757Z,13.41
2023-10-26T22:33:54.710Z,13.40
2023-10-26T22:36:22.244Z,13.39
2023-10-26T22:38:49.130Z,13.38
2023-10-26T22:41:16.579Z,13.39
2023-10-26T22:43:43.721Z,13.39
2023-10-26T22:46:10.588Z,13.40
2023-10-26T22:48:37.544Z,13.38
2023-10-26T22:51:04.701Z,13.33
2023-10-26T22:53:31.730Z,13.29
2023-10-26T22:56:01.047Z,13.26
2023-10-26T22:58:28.001Z,13.24
2023-10-26T23:00:55.028Z,13.22
2023-10-26T23:03:21.929Z,13.20
2023-10-26T23:05:48.802Z,13.18
2023-10-26T23:08:15.707Z,13.19
2023-10-26T23:10:43.012Z,13.21
2023-10-26T23:13:10.796Z,13.22
2023-10-26T23:15:37.794Z,13.22
2023-10-26T23:18:04.884Z,13.24
2023-10-26T23:20:32.964Z,13.22
2023-10-26T23:23:04.665Z,13.19
2023-10-26T23:25:31.621Z,13.17
2023-10-26T23:28:01.086Z,13.16
2023-10-26T23:30:27.906Z,13.14
2023-10-26T23:32:55.597Z,13.09
2023-10-26T23:35:22.633Z,13.05
2023-10-26T23:37:49.495Z,13.04
2023-10-26T23:40:16.938Z,13.05
2023-10-26T23:42:43.866Z,13.06
2023-10-26T23:45:11.054Z,13.08
2023-10-26T23:47:37.982Z,13.06
2023-10-26T23:50:05.253Z,13.08
2023-10-26T23:52:35.636Z,13.09
2023-10-26T23:55:02.857Z,13.10
2023-10-26T23:57:29.704Z,13.09
2023-10-26T23:59:56.603Z,13.09
